sensor_id;sensor_type;location;lat;lon;timestamp;temperature;humidity
56123;DHT22;42426;46.104;19.656;2024-01-30T01:12:09;25.70;2201.60
56123;DHT22;42426;46.104;19.656;2024-01-30T01:14:35;0.80;2201.60
56123;DHT22;42426;46.104;19.656;2024-01-30T01:17:01;0.80;2201.60
56123;DHT22;42426;46.104;19.656;2024-01-30T01:19:27;0.80;2201.60
56123;DHT22;42426;46.104;19.656;2024-01-30T01:21:53;0.80;2201.60
56123;DHT22;42426;46.104;19.656;2024-01-30T01:24:19;0.80;2201.60
56123;DHT22;42426;46.104;19.656;2024-01-30T01:26:44;0.70;2201.60
56123;DHT22;42426;46.104;19.656;2024-01-30T01:29:10;0.70;2201.60
56123;DHT22;42426;46.104;19.656;2024-01-30T01:31:37;0.70;2201.60
56123;DHT22;42426;46.104;19.656;2024-01-30T01:34:13;0.70;2201.60
56123;DHT22;42426;46.104;19.656;2024-01-30T01:36:39;0.80;2201.60
56123;DHT22;42426;46.104;19.656;2024-01-30T01:39:05;0.70;2201.60
56123;DHT22;42426;46.104;19.656;2024-01-30T01:41:31;0.70;2201.60
56123;DHT22;42426;46.104;19.656;2024-01-30T01:43:58;0.60;2201.60
56123;DHT22;42426;46.104;19.656;2024-01-30T01:46:27;0.60;2201.60
56123;DHT22;42426;46.104;19.656;2024-01-30T09:03:54;26.50;2201.60
56123;DHT22;42426;46.104;19.656;2024-01-30T09:06:20;26.30;2201.60
56123;DHT22;42426;46.104;19.656;2024-01-30T09:08:46;26.30;2201.60
56123;DHT22;42426;46.104;19.656;2024-01-30T09:11:13;26.30;2201.60
56123;DHT22;42426;46.104;19.656;2024-01-30T09:13:40;26.40;2201.60
56123;DHT22;42426;46.104;19.656;2024-01-30T09:16:06;26.40;2201.60
56123;DHT22;42426;46.104;19.656;2024-01-30T09:18:33;51.20;2227.20
56123;DHT22;42426;46.104;19.656;2024-01-30T09:21:00;51.30;2227.20
56123;DHT22;42426;46.104;19.656;2024-01-30T09:23:28;51.30;2227.20
56123;DHT22;42426;46.104;19.656;2024-01-30T11:36:45;128.70;2252.80
56123;DHT22;42426;46.104;19.656;2024-01-30T11:39:17;128.60;2252.80
56123;DHT22;42426;46.104;19.656;2024-01-30T11:41:44;128.50;2252.80
56123;DHT22;42426;46.104;19.656;2024-01-30T11:44:11;128.40;2252.80
56123;DHT22;42426;46.104;19.656;2024-01-30T11:46:37;128.40;2252.80
56123;DHT22;42426;46.104;19.656;2024-01-30T11:49:03;128.50;2252.80
56123;DHT22;42426;46.104;19.656;2024-01-30T11:51:31;128.60;2252.80
56123;DHT22;42426;46.104;19.656;2024-01-30T11:53:57;128.70;2252.80
56123;DHT22;42426;46.104;19.656;2024-01-30T11:56:26;128.70;2252.80
56123;DHT22;42426;46.104;19.656;2024-01-30T11:58:52;128.80;2252.80
56123;DHT22;42426;46.104;19.656;2024-01-30T12:01:18;128.90;2252.80
56123;DHT22;42426;46.104;19.656;2024-01-30T12:03:54;153.60;2252.80
56123;DHT22;42426;46.104;19.656;2024-01-30T12:06:20;128.90;2252.80
56123;DHT22;42426;46.104;19.656;2024-01-30T12:08:59;153.60;2252.80
56123;DHT22;42426;46.104;19.656;2024-01-30T12:11:26;153.70;2252.80
56123;DHT22;42426;46.104;19.656;2024-01-30T12:13:53;153.80;2252.80
56123;DHT22;42426;46.104;19.656;2024-01-30T12:16:19;153.90;2252.80
56123;DHT22;42426;46.104;19.656;2024-01-30T12:18:45;153.90;2252.80
56123;DHT22;42426;46.104;19.656;2024-01-30T12:21:15;153.90;2252.80
56123;DHT22;42426;46.104;19.656;2024-01-30T12:23:41;154.00;2252.80
56123;DHT22;42426;46.104;19.656;2024-01-30T12:26:08;154.00;2252.80
56123;DHT22;42426;46.104;19.656;2024-01-30T12:28:35;154.10;2252.80
56123;DHT22;42426;46.104;19.656;2024-01-30T12:31:04;154.10;2252.80
56123;DHT22;42426;46.104;19.656;2024-01-30T12:33:30;154.10;2252.80
56123;DHT22;42426;46.104;19.656;2024-01-30T12:35:57;154.20;2252.80
56123;DHT22;42426;46.104;19.656;2024-01-30T13:32:16;179.60;2252.80
56123;DHT22;42426;46.104;19.656;2024-01-30T13:34:41;179.30;2252.80
56123;DHT22;42426;46.104;19.656;2024-01-30T13:37:08;179.30;2252.80
56123;DHT22;42426;46.104;19.656;2024-01-30T13:39:34;179.30;2252.80
56123;DHT22;42426;46.104;19.656;2024-01-30T13:42:00;179.40;2252.80
56123;DHT22;42426;46.104;19.656;2024-01-30T13:44:27;179.40;2252.80
56123;DHT22;42426;46.104;19.656;2024-01-30T13:59:07;179.70;2252.80
56123;DHT22;42426;46.104;19.656;2024-01-30T14:01:32;179.60;2252.80
56123;DHT22;42426;46.104;19.656;2024-01-30T14:03:58;179.50;2252.80
56123;DHT22;42426;46.104;19.656;2024-01-30T14:06:24;179.50;2252.80
56123;DHT22;42426;46.104;19.656;2024-01-30T14:08:50;179.30;2252.80
56123;DHT22;42426;46.104;19.656;2024-01-30T14:11:16;179.60;2252.80
56123;DHT22;42426;46.104;19.656;2024-01-30T14:13:41;179.40;2252.80
56123;DHT22;42426;46.104;19.656;2024-01-30T14:16:07;179.40;2252.80
56123;DHT22;42426;46.104;19.656;2024-01-30T14:18:33;179.50;2252.80
56123;DHT22;42426;46.104;19.656;2024-01-30T14:21:01;179.50;2252.80
56123;DHT22;42426;46.104;19.656;2024-01-30T14:23:28;179.50;2252.80
56123;DHT22;42426;46.104;19.656;2024-01-30T14:25:53;179.50;2252.80
56123;DHT22;42426;46.104;19.656;2024-01-30T14:28:19;179.50;2252.80
56123;DHT22;42426;46.104;19.656;2024-01-30T14:30:45;179.50;2252.80
56123;DHT22;42426;46.104;19.656;2024-01-30T14:33:11;179.50;2252.80
56123;DHT22;42426;46.104;19.656;2024-01-30T14:35:38;179.50;2252.80
56123;DHT22;42426;46.104;19.656;2024-01-30T14:38:04;179.50;2252.80
56123;DHT22;42426;46.104;19.656;2024-01-30T14:40:31;179.40;2252.80
56123;DHT22;42426;46.104;19.656;2024-01-30T14:42:56;179.40;2252.80
56123;DHT22;42426;46.104;19.656;2024-01-30T14:45:22;179.40;2252.80
56123;DHT22;42426;46.104;19.656;2024-01-30T14:47:48;179.50;2252.80
56123;DHT22;42426;46.104;19.656;2024-01-30T14:50:14;179.50;2252.80
56123;DHT22;42426;46.104;19.656;2024-01-30T14:52:42;179.50;2252.80
56123;DHT22;42426;46.104;19.656;2024-01-30T14:55:08;179.40;2252.80
56123;DHT22;42426;46.104;19.656;2024-01-30T14:57:34;179.40;2252.80
56123;DHT22;42426;46.104;19.656;2024-01-30T15:00:00;179.30;2252.80
56123;DHT22;42426;46.104;19.656;2024-01-30T15:02:27;179.40;2252.80
56123;DHT22;42426;46.104;19.656;2024-01-30T15:04:53;179.20;2252.80
56123;DHT22;42426;46.104;19.656;2024-01-30T15:07:19;179.20;2252.80
56123;DHT22;42426;46.104;19.656;2024-01-30T15:09:44;154.50;2252.80
56123;DHT22;42426;46.104;19.656;2024-01-30T15:12:10;154.50;2252.80
56123;DHT22;42426;46.104;19.656;2024-01-30T15:14:36;154.40;2252.80
56123;DHT22;42426;46.104;19.656;2024-01-30T15:17:01;154.40;2252.80
56123;DHT22;42426;46.104;19.656;2024-01-30T15:19:27;154.30;2252.80
56123;DHT22;42426;46.104;19.656;2024-01-30T15:21:53;154.20;2252.80
56123;DHT22;42426;46.104;19.656;2024-01-30T15:24:19;154.10;2252.80
56123;DHT22;42426;46.104;19.656;2024-01-30T15:26:46;154.20;2252.80
56123;DHT22;42426;46.104;19.656;2024-01-30T15:29:11;154.00;2252.80
56123;DHT22;42426;46.104;19.656;2024-01-30T15:34:03;154.20;2252.80
56123;DHT22;42426;46.104;19.656;2024-01-30T15:36:30;154.00;2252.80
56123;DHT22;42426;46.104;19.656;2024-01-30T15:38:56;153.80;2252.80
56123;DHT22;42426;46.104;19.656;2024-01-30T15:41:22;153.90;2252.80
56123;DHT22;42426;46.104;19.656;2024-01-30T15:43:48;153.70;2252.80
56123;DHT22;42426;46.104;19.656;2024-01-30T15:46:13;153.60;2252.80
56123;DHT22;42426;46.104;19.656;2024-01-30T15:48:39;128.90;2252.80
56123;DHT22;42426;46.104;19.656;2024-01-30T15:51:06;128.90;2252.80
56123;DHT22;42426;46.104;19.656;2024-01-30T15:53:32;128.90;2252.80
56123;DHT22;42426;46.104;19.656;2024-01-30T15:55:57;128.80;2252.80
56123;DHT22;42426;46.104;19.656;2024-01-30T15:58:23;128.70;2252.80
56123;DHT22;42426;46.104;19.656;2024-01-30T16:00:49;128.60;2252.80
56123;DHT22;42426;46.104;19.656;2024-01-30T16:03:15;128.60;2252.80
56123;DHT22;42426;46.104;19.656;2024-01-30T16:05:41;128.60;2252.80
56123;DHT22;42426;46.104;19.656;2024-01-30T16:08:13;128.50;2252.80
56123;DHT22;42426;46.104;19.656;2024-01-30T16:10:38;128.50;2252.80
56123;DHT22;42426;46.104;19.656;2024-01-30T16:13:04;128.40;2252.80
56123;DHT22;42426;46.104;19.656;2024-01-30T16:15:30;128.30;2252.80
56123;DHT22;42426;46.104;19.656;2024-01-30T16:17:57;128.30;2252.80
56123;DHT22;42426;46.104;19.656;2024-01-30T16:20:22;128.30;2252.80
56123;DHT22;42426;46.104;19.656;2024-01-30T16:22:48;128.30;2252.80
56123;DHT22;42426;46.104;19.656;2024-01-30T16:25:18;128.30;2252.80
56123;DHT22;42426;46.104;19.656;2024-01-30T16:27:44;128.20;2252.80
56123;DHT22;42426;46.104;19.656;2024-01-30T16:30:11;128.20;2252.80
56123;DHT22;42426;46.104;19.656;2024-01-30T16:32:37;128.20;2252.80
56123;DHT22;42426;46.104;19.656;2024-01-30T16:35:03;128.10;2252.80
56123;DHT22;42426;46.104;19.656;2024-01-30T16:37:29;128.10;2252.80
56123;DHT22;42426;46.104;19.656;2024-01-30T16:39:55;128.10;2252.80
56123;DHT22;42426;46.104;19.656;2024-01-30T16:42:22;128.00;2252.80
56123;DHT22;42426;46.104;19.656;2024-01-30T16:44:47;128.00;2252.80
56123;DHT22;42426;46.104;19.656;2024-01-30T16:47:14;128.00;2252.80
56123;DHT22;42426;46.104;19.656;2024-01-30T16:49:40;128.00;2252.80
56123;DHT22;42426;46.104;19.656;2024-01-30T16:52:06;128.00;2252.80
56123;DHT22;42426;46.104;19.656;2024-01-30T16:54:32;103.30;2227.20
56123;DHT22;42426;46.104;19.656;2024-01-30T16:56:58;103.30;2227.20
56123;DHT22;42426;46.104;19.656;2024-01-30T16:59:24;103.20;2227.20
56123;DHT22;42426;46.104;19.656;2024-01-30T17:01:50;103.20;2227.20
56123;DHT22;42426;46.104;19.656;2024-01-30T17:04:16;103.20;2227.20
56123;DHT22;42426;46.104;19.656;2024-01-30T17:06:42;103.10;2227.20
56123;DHT22;42426;46.104;19.656;2024-01-30T17:09:08;103.10;2227.20
56123;DHT22;42426;46.104;19.656;2024-01-30T17:11:35;103.00;2227.20
56123;DHT22;42426;46.104;19.656;2024-01-30T17:14:01;103.00;2227.20
56123;DHT22;42426;46.104;19.656;2024-01-30T17:16:29;102.90;2227.20
56123;DHT22;42426;46.104;19.656;2024-01-30T17:18:54;102.90;2227.20
56123;DHT22;42426;46.104;19.656;2024-01-30T17:21:23;102.90;2227.20
56123;DHT22;42426;46.104;19.656;2024-01-30T17:23:48;102.90;2227.20
56123;DHT22;42426;46.104;19.656;2024-01-30T17:26:14;102.90;2227.20
56123;DHT22;42426;46.104;19.656;2024-01-30T17:28:41;102.90;2227.20
56123;DHT22;42426;46.104;19.656;2024-01-30T17:31:07;102.80;2227.20
56123;DHT22;42426;46.104;19.656;2024-01-30T17:33:33;102.80;2227.20
56123;DHT22;42426;46.104;19.656;2024-01-30T17:35:59;102.70;2227.20
56123;DHT22;42426;46.104;19.656;2024-01-30T17:38:25;102.70;2227.20
56123;DHT22;42426;46.104;19.656;2024-01-30T17:40:51;102.70;2227.20
56123;DHT22;42426;46.104;19.656;2024-01-30T17:43:17;102.70;2227.20
56123;DHT22;42426;46.104;19.656;2024-01-30T17:45:43;102.60;2227.20
56123;DHT22;42426;46.104;19.656;2024-01-30T17:48:09;102.60;2227.20
56123;DHT22;42426;46.104;19.656;2024-01-30T17:50:35;102.60;2227.20
56123;DHT22;42426;46.104;19.656;2024-01-30T17:53:01;102.60;2227.20
56123;DHT22;42426;46.104;19.656;2024-01-30T17:55:27;102.60;2227.20
56123;DHT22;42426;46.104;19.656;2024-01-30T17:57:52;102.60;2227.20
56123;DHT22;42426;46.104;19.656;2024-01-30T18:00:18;102.60;2227.20
56123;DHT22;42426;46.104;19.656;2024-01-30T18:02:46;102.60;2227.20
56123;DHT22;42426;46.104;19.656;2024-01-30T18:05:12;102.60;2227.20
56123;DHT22;42426;46.104;19.656;2024-01-30T18:07:38;102.60;2227.20
56123;DHT22;42426;46.104;19.656;2024-01-30T18:10:05;102.60;2227.20
56123;DHT22;42426;46.104;19.656;2024-01-30T18:12:33;102.60;2227.20
56123;DHT22;42426;46.104;19.656;2024-01-30T18:15:00;102.60;2227.20
56123;DHT22;42426;46.104;19.656;2024-01-30T18:54:06;102.50;2227.20
56123;DHT22;42426;46.104;19.656;2024-01-30T18:56:32;77.70;2227.20
56123;DHT22;42426;46.104;19.656;2024-01-30T19:03:50;102.40;2227.20
56123;DHT22;42426;46.104;19.656;2024-01-30T19:06:16;102.40;2227.20
56123;DHT22;42426;46.104;19.656;2024-01-30T19:08:42;77.60;2227.20
56123;DHT22;42426;46.104;19.656;2024-01-30T19:11:17;77.60;2227.20
56123;DHT22;42426;46.104;19.656;2024-01-30T19:13:44;77.60;2227.20
56123;DHT22;42426;46.104;19.656;2024-01-30T19:16:09;77.50;2227.20
56123;DHT22;42426;46.104;19.656;2024-01-30T19:18:35;77.50;2227.20
56123;DHT22;42426;46.104;19.656;2024-01-30T19:21:01;77.50;2227.20
56123;DHT22;42426;46.104;19.656;2024-01-30T19:23:27;77.50;2227.20
56123;DHT22;42426;46.104;19.656;2024-01-30T19:25:53;77.50;2227.20
56123;DHT22;42426;46.104;19.656;2024-01-30T19:28:19;77.40;2227.20
56123;DHT22;42426;46.104;19.656;2024-01-30T19:30:48;77.40;2227.20
56123;DHT22;42426;46.104;19.656;2024-01-30T19:33:15;77.30;2227.20
56123;DHT22;42426;46.104;19.656;2024-01-30T19:35:42;77.30;2227.20
56123;DHT22;42426;46.104;19.656;2024-01-30T19:38:07;77.30;2227.20
56123;DHT22;42426;46.104;19.656;2024-01-30T19:40:35;77.30;2227.20
56123;DHT22;42426;46.104;19.656;2024-01-30T19:43:01;77.20;2227.20
